Fort Worth - NOAA's Hourly Summary for Thursday, April 20, 2017
Hour Temp
(f)
RH
(%)
Solar Rad.
(MJ/m2)
Rainfall
(in)
Wind
(mph)
4/20/2017 12:00 AM 72 80 0 0 5.27
4/20/2017 1:00 AM 71 81 0 0 7.34
4/20/2017 2:00 AM 71 82 0 0 7.81
4/20/2017 3:00 AM 70 82 0 0 7.72
4/20/2017 4:00 AM 69 86 0 0 5.04
4/20/2017 5:00 AM 70 83 0 0 5.76
4/20/2017 6:00 AM 69 83 0 0 6.06
4/20/2017 7:00 AM 69 83 0.16 0 5.76
4/20/2017 8:00 AM 71 76 0.81 0 7.87
4/20/2017 9:00 AM 74 71 1.41 0 9.72
4/20/2017 10:00 AM 76 66 1.69 0 5.78
4/20/2017 11:00 AM 77 65 1.72 0 5.62
4/20/2017 12:00 PM 78 63 1.8 0 4.38
4/20/2017 1:00 PM 79 62 2.07 0 6.71
4/20/2017 2:00 PM 81 59 3.16 0 5.97
4/20/2017 3:00 PM 82 55 2.69 0 7.29
4/20/2017 4:00 PM 82 55 1.7 0 7.75
4/20/2017 5:00 PM 83 53 1.77 0 8.88
4/20/2017 6:00 PM 81 57 0.92 0 8.47
4/20/2017 7:00 PM 80 60 0.12 0 8.09
4/20/2017 8:00 PM 78 65 0.01 0 4.45
4/20/2017 9:00 PM 76 69 0 0 4.89
4/20/2017 10:00 PM 75 72 0 0 3.4
4/20/2017 11:00 PM 74 73 0 0 5.05
Data Summary 75 70 20.03 0.00 6.46